sensor_id;sensor_type;location;lat;lon;timestamp;P1;durP1;ratioP1;P2;durP2;ratioP2
16506;SDS011;8366;51.020;7.642;2022-09-09T00:02:10;2.90;;;1.27;;
16506;SDS011;8366;51.020;7.642;2022-09-09T00:04:46;2.88;;;1.52;;
16506;SDS011;8366;51.020;7.642;2022-09-09T00:07:21;1.75;;;1.30;;
16506;SDS011;8366;51.020;7.642;2022-09-09T00:09:52;3.47;;;1.40;;
16506;SDS011;8366;51.020;7.642;2022-09-09T00:12:25;6.75;;;1.52;;
16506;SDS011;8366;51.020;7.642;2022-09-09T00:14:59;4.20;;;1.48;;
16506;SDS011;8366;51.020;7.642;2022-09-09T00:17:31;3.47;;;1.50;;
16506;SDS011;8366;51.020;7.642;2022-09-09T00:20:03;4.28;;;1.27;;
16506;SDS011;8366;51.020;7.642;2022-09-09T00:22:35;3.22;;;1.45;;
16506;SDS011;8366;51.020;7.642;2022-09-09T00:25:08;2.90;;;1.50;;
16506;SDS011;8366;51.020;7.642;2022-09-09T00:27:39;2.00;;;1.20;;
16506;SDS011;8366;51.020;7.642;2022-09-09T00:30:13;6.18;;;1.60;;
16506;SDS011;8366;51.020;7.642;2022-09-09T00:32:44;2.67;;;1.40;;
16506;SDS011;8366;51.020;7.642;2022-09-09T00:35:16;4.40;;;1.63;;
16506;SDS011;8366;51.020;7.642;2022-09-09T00:37:44;4.85;;;1.40;;
16506;SDS011;8366;51.020;7.642;2022-09-09T00:40:17;2.97;;;1.40;;
16506;SDS011;8366;51.020;7.642;2022-09-09T00:42:48;5.22;;;1.20;;
16506;SDS011;8366;51.020;7.642;2022-09-09T00:45:29;4.65;;;1.30;;
16506;SDS011;8366;51.020;7.642;2022-09-09T00:48:06;4.00;;;1.23;;
16506;SDS011;8366;51.020;7.642;2022-09-09T00:50:42;5.20;;;1.45;;
16506;SDS011;8366;51.020;7.642;2022-09-09T00:53:21;3.50;;;1.48;;
16506;SDS011;8366;51.020;7.642;2022-09-09T00:55:56;4.45;;;1.40;;
16506;SDS011;8366;51.020;7.642;2022-09-09T00:58:26;2.75;;;1.20;;
16506;SDS011;8366;51.020;7.642;2022-09-09T01:00:55;3.88;;;1.60;;
16506;SDS011;8366;51.020;7.642;2022-09-09T01:03:26;4.03;;;1.50;;
16506;SDS011;8366;51.020;7.642;2022-09-09T01:06:01;3.03;;;1.50;;
16506;SDS011;8366;51.020;7.642;2022-09-09T01:08:48;2.55;;;1.50;;
16506;SDS011;8366;51.020;7.642;2022-09-09T01:11:25;6.47;;;1.90;;
16506;SDS011;8366;51.020;7.642;2022-09-09T01:13:56;4.90;;;1.70;;
16506;SDS011;8366;51.020;7.642;2022-09-09T01:16:25;5.32;;;1.73;;
16506;SDS011;8366;51.020;7.642;2022-09-09T01:18:52;2.05;;;1.45;;
16506;SDS011;8366;51.020;7.642;2022-09-09T01:21:23;3.10;;;1.45;;
16506;SDS011;8366;51.020;7.642;2022-09-09T01:24:00;4.18;;;1.60;;
16506;SDS011;8366;51.020;7.642;2022-09-09T01:26:33;3.35;;;1.50;;
16506;SDS011;8366;51.020;7.642;2022-09-09T01:29:01;4.13;;;1.50;;
16506;SDS011;8366;51.020;7.642;2022-09-09T01:31:28;4.57;;;1.50;;
16506;SDS011;8366;51.020;7.642;2022-09-09T01:33:57;3.38;;;1.80;;
16506;SDS011;8366;51.020;7.642;2022-09-09T01:36:26;4.50;;;1.88;;
16506;SDS011;8366;51.020;7.642;2022-09-09T01:38:56;3.40;;;1.70;;
16506;SDS011;8366;51.020;7.642;2022-09-09T01:41:22;5.85;;;1.85;;
16506;SDS011;8366;51.020;7.642;2022-09-09T01:43:50;4.93;;;1.70;;
16506;SDS011;8366;51.020;7.642;2022-09-09T01:46:18;3.17;;;1.90;;
16506;SDS011;8366;51.020;7.642;2022-09-09T01:48:47;4.13;;;1.50;;
16506;SDS011;8366;51.020;7.642;2022-09-09T01:51:14;4.70;;;1.67;;
16506;SDS011;8366;51.020;7.642;2022-09-09T01:53:41;6.10;;;1.80;;
16506;SDS011;8366;51.020;7.642;2022-09-09T01:56:11;3.60;;;1.52;;
16506;SDS011;8366;51.020;7.642;2022-09-09T01:59:00;3.88;;;1.48;;
16506;SDS011;8366;51.020;7.642;2022-09-09T02:01:38;5.32;;;1.35;;
16506;SDS011;8366;51.020;7.642;2022-09-09T02:04:12;2.65;;;1.50;;
16506;SDS011;8366;51.020;7.642;2022-09-09T02:06:45;5.60;;;1.90;;
16506;SDS011;8366;51.020;7.642;2022-09-09T02:09:12;3.60;;;1.48;;
16506;SDS011;8366;51.020;7.642;2022-09-09T02:11:39;4.75;;;2.15;;
16506;SDS011;8366;51.020;7.642;2022-09-09T02:14:08;3.30;;;1.75;;
16506;SDS011;8366;51.020;7.642;2022-09-09T02:16:39;5.47;;;1.98;;
16506;SDS011;8366;51.020;7.642;2022-09-09T02:19:08;7.05;;;1.75;;
16506;SDS011;8366;51.020;7.642;2022-09-09T02:21:37;4.70;;;1.60;;
16506;SDS011;8366;51.020;7.642;2022-09-09T02:24:05;3.55;;;1.50;;
16506;SDS011;8366;51.020;7.642;2022-09-09T02:26:35;3.38;;;1.65;;
16506;SDS011;8366;51.020;7.642;2022-09-09T02:29:04;3.08;;;1.50;;
16506;SDS011;8366;51.020;7.642;2022-09-09T02:31:34;4.00;;;1.58;;
16506;SDS011;8366;51.020;7.642;2022-09-09T02:34:01;3.95;;;1.70;;
16506;SDS011;8366;51.020;7.642;2022-09-09T02:36:31;3.67;;;1.80;;
16506;SDS011;8366;51.020;7.642;2022-09-09T02:38:59;3.88;;;1.80;;
16506;SDS011;8366;51.020;7.642;2022-09-09T02:41:28;3.95;;;1.75;;
16506;SDS011;8366;51.020;7.642;2022-09-09T02:43:58;2.08;;;1.40;;
16506;SDS011;8366;51.020;7.642;2022-09-09T02:46:32;2.25;;;1.30;;
16506;SDS011;8366;51.020;7.642;2022-09-09T02:49:04;4.80;;;2.03;;
16506;SDS011;8366;51.020;7.642;2022-09-09T02:51:35;4.97;;;1.80;;
16506;SDS011;8366;51.020;7.642;2022-09-09T02:54:21;3.78;;;1.75;;
16506;SDS011;8366;51.020;7.642;2022-09-09T02:56:55;4.70;;;1.63;;
16506;SDS011;8366;51.020;7.642;2022-09-09T02:59:24;5.75;;;1.67;;
16506;SDS011;8366;51.020;7.642;2022-09-09T03:01:52;5.03;;;1.70;;
16506;SDS011;8366;51.020;7.642;2022-09-09T03:04:19;2.40;;;1.42;;
16506;SDS011;8366;51.020;7.642;2022-09-09T03:06:46;6.95;;;1.50;;
16506;SDS011;8366;51.020;7.642;2022-09-09T03:09:12;4.18;;;1.75;;
16506;SDS011;8366;51.020;7.642;2022-09-09T03:11:39;2.17;;;1.70;;
16506;SDS011;8366;51.020;7.642;2022-09-09T03:14:05;4.10;;;1.60;;
16506;SDS011;8366;51.020;7.642;2022-09-09T03:16:33;3.17;;;1.50;;
16506;SDS011;8366;51.020;7.642;2022-09-09T03:19:01;4.00;;;1.50;;
16506;SDS011;8366;51.020;7.642;2022-09-09T03:21:27;3.65;;;1.55;;
16506;SDS011;8366;51.020;7.642;2022-09-09T03:23:54;3.45;;;1.75;;
16506;SDS011;8366;51.020;7.642;2022-09-09T03:26:20;3.95;;;1.80;;
16506;SDS011;8366;51.020;7.642;2022-09-09T03:28:48;2.80;;;1.45;;
16506;SDS011;8366;51.020;7.642;2022-09-09T03:31:16;4.00;;;1.42;;
16506;SDS011;8366;51.020;7.642;2022-09-09T03:33:44;3.40;;;1.50;;
16506;SDS011;8366;51.020;7.642;2022-09-09T03:36:12;4.97;;;1.85;;
16506;SDS011;8366;51.020;7.642;2022-09-09T03:38:39;2.42;;;1.67;;
16506;SDS011;8366;51.020;7.642;2022-09-09T03:41:05;4.72;;;1.60;;
16506;SDS011;8366;51.020;7.642;2022-09-09T03:43:33;4.43;;;1.67;;
16506;SDS011;8366;51.020;7.642;2022-09-09T03:45:59;5.70;;;1.58;;
16506;SDS011;8366;51.020;7.642;2022-09-09T03:48:26;5.70;;;2.00;;
16506;SDS011;8366;51.020;7.642;2022-09-09T03:50:54;4.88;;;1.60;;
16506;SDS011;8366;51.020;7.642;2022-09-09T03:53:24;5.13;;;1.42;;
16506;SDS011;8366;51.020;7.642;2022-09-09T03:55:53;5.38;;;1.67;;
16506;SDS011;8366;51.020;7.642;2022-09-09T03:58:21;4.40;;;1.70;;
16506;SDS011;8366;51.020;7.642;2022-09-09T04:00:58;5.10;;;1.85;;
16506;SDS011;8366;51.020;7.642;2022-09-09T04:03:25;3.85;;;1.77;;
16506;SDS011;8366;51.020;7.642;2022-09-09T04:05:52;4.95;;;2.20;;
16506;SDS011;8366;51.020;7.642;2022-09-09T04:08:19;5.03;;;2.10;;
16506;SDS011;8366;51.020;7.642;2022-09-09T04:10:48;3.47;;;1.70;;
16506;SDS011;8366;51.020;7.642;2022-09-09T04:13:16;3.38;;;1.60;;
16506;SDS011;8366;51.020;7.642;2022-09-09T04:15:43;4.38;;;1.52;;
16506;SDS011;8366;51.020;7.642;2022-09-09T04:18:10;4.70;;;1.55;;
16506;SDS011;8366;51.020;7.642;2022-09-09T04:20:37;6.00;;;1.65;;
16506;SDS011;8366;51.020;7.642;2022-09-09T04:23:03;5.30;;;1.73;;
16506;SDS011;8366;51.020;7.642;2022-09-09T04:25:30;4.03;;;1.35;;
16506;SDS011;8366;51.020;7.642;2022-09-09T04:28:00;5.30;;;1.90;;
16506;SDS011;8366;51.020;7.642;2022-09-09T04:30:27;2.65;;;1.60;;
16506;SDS011;8366;51.020;7.642;2022-09-09T04:32:54;3.13;;;1.70;;
16506;SDS011;8366;51.020;7.642;2022-09-09T04:35:20;3.35;;;1.40;;
16506;SDS011;8366;51.020;7.642;2022-09-09T04:37:46;4.20;;;1.60;;
16506;SDS011;8366;51.020;7.642;2022-09-09T04:40:14;4.85;;;1.55;;
16506;SDS011;8366;51.020;7.642;2022-09-09T04:42:40;5.35;;;1.60;;
16506;SDS011;8366;51.020;7.642;2022-09-09T04:45:10;5.10;;;1.90;;
16506;SDS011;8366;51.020;7.642;2022-09-09T04:47:38;5.75;;;2.20;;
16506;SDS011;8366;51.020;7.642;2022-09-09T04:50:05;7.00;;;1.77;;
16506;SDS011;8366;51.020;7.642;2022-09-09T04:52:33;5.00;;;2.00;;
16506;SDS011;8366;51.020;7.642;2022-09-09T04:55:00;5.50;;;1.75;;
16506;SDS011;8366;51.020;7.642;2022-09-09T04:57:26;2.88;;;1.70;;
16506;SDS011;8366;51.020;7.642;2022-09-09T04:59:53;3.72;;;1.50;;
16506;SDS011;8366;51.020;7.642;2022-09-09T05:02:21;3.70;;;1.60;;
16506;SDS011;8366;51.020;7.642;2022-09-09T05:04:47;1.75;;;1.55;;
16506;SDS011;8366;51.020;7.642;2022-09-09T05:07:14;4.45;;;1.95;;
16506;SDS011;8366;51.020;7.642;2022-09-09T05:09:41;4.80;;;1.65;;
16506;SDS011;8366;51.020;7.642;2022-09-09T05:12:08;3.58;;;1.80;;
16506;SDS011;8366;51.020;7.642;2022-09-09T05:14:34;4.30;;;1.45;;
16506;SDS011;8366;51.020;7.642;2022-09-09T05:17:02;3.90;;;1.80;;
16506;SDS011;8366;51.020;7.642;2022-09-09T05:19:30;3.88;;;1.95;;
16506;SDS011;8366;51.020;7.642;2022-09-09T05:21:56;9.40;;;2.00;;
16506;SDS011;8366;51.020;7.642;2022-09-09T05:24:23;11.07;;;2.45;;
16506;SDS011;8366;51.020;7.642;2022-09-09T05:26:50;9.98;;;2.80;;
16506;SDS011;8366;51.020;7.642;2022-09-09T05:29:17;8.15;;;2.53;;
16506;SDS011;8366;51.020;7.642;2022-09-09T05:31:44;5.63;;;1.67;;
16506;SDS011;8366;51.020;7.642;2022-09-09T05:34:10;6.78;;;2.30;;
16506;SDS011;8366;51.020;7.642;2022-09-09T05:36:38;5.65;;;1.58;;
16506;SDS011;8366;51.020;7.642;2022-09-09T05:39:05;6.25;;;1.83;;
16506;SDS011;8366;51.020;7.642;2022-09-09T05:41:31;4.88;;;1.58;;
16506;SDS011;8366;51.020;7.642;2022-09-09T05:43:58;5.07;;;1.90;;
16506;SDS011;8366;51.020;7.642;2022-09-09T05:46:26;5.35;;;1.83;;
16506;SDS011;8366;51.020;7.642;2022-09-09T05:48:52;2.60;;;1.58;;
16506;SDS011;8366;51.020;7.642;2022-09-09T05:51:20;5.30;;;1.55;;
16506;SDS011;8366;51.020;7.642;2022-09-09T05:53:50;5.90;;;1.63;;
16506;SDS011;8366;51.020;7.642;2022-09-09T05:56:17;3.90;;;1.65;;
16506;SDS011;8366;51.020;7.642;2022-09-09T05:58:45;7.78;;;2.00;;
16506;SDS011;8366;51.020;7.642;2022-09-09T06:01:14;2.22;;;1.50;;
16506;SDS011;8366;51.020;7.642;2022-09-09T06:03:42;7.05;;;1.77;;
16506;SDS011;8366;51.020;7.642;2022-09-09T06:06:10;5.93;;;1.67;;
16506;SDS011;8366;51.020;7.642;2022-09-09T06:08:38;4.80;;;1.85;;
16506;SDS011;8366;51.020;7.642;2022-09-09T06:11:08;4.50;;;1.80;;
16506;SDS011;8366;51.020;7.642;2022-09-09T06:13:35;5.65;;;1.92;;
16506;SDS011;8366;51.020;7.642;2022-09-09T06:16:04;3.97;;;1.50;;
16506;SDS011;8366;51.020;7.642;2022-09-09T06:18:32;4.80;;;1.83;;
16506;SDS011;8366;51.020;7.642;2022-09-09T06:20:59;5.07;;;2.00;;
16506;SDS011;8366;51.020;7.642;2022-09-09T06:23:28;5.53;;;1.80;;
16506;SDS011;8366;51.020;7.642;2022-09-09T06:26:02;2.88;;;1.75;;
16506;SDS011;8366;51.020;7.642;2022-09-09T06:28:32;5.45;;;2.05;;
16506;SDS011;8366;51.020;7.642;2022-09-09T06:30:58;3.03;;;1.88;;
16506;SDS011;8366;51.020;7.642;2022-09-09T06:33:25;5.65;;;1.80;;
16506;SDS011;8366;51.020;7.642;2022-09-09T06:35:52;4.38;;;1.83;;
16506;SDS011;8366;51.020;7.642;2022-09-09T06:38:19;6.35;;;1.73;;
16506;SDS011;8366;51.020;7.642;2022-09-09T06:40:50;4.57;;;1.67;;
16506;SDS011;8366;51.020;7.642;2022-09-09T06:43:18;5.60;;;1.60;;
16506;SDS011;8366;51.020;7.642;2022-09-09T06:45:53;5.47;;;1.67;;
16506;SDS011;8366;51.020;7.642;2022-09-09T06:48:20;3.13;;;1.50;;
16506;SDS011;8366;51.020;7.642;2022-09-09T06:50:47;5.90;;;1.63;;
16506;SDS011;8366;51.020;7.642;2022-09-09T06:53:16;3.30;;;1.80;;
16506;SDS011;8366;51.020;7.642;2022-09-09T06:55:44;4.65;;;1.90;;
16506;SDS011;8366;51.020;7.642;2022-09-09T06:58:10;4.43;;;1.65;;
16506;SDS011;8366;51.020;7.642;2022-09-09T07:00:37;5.53;;;1.60;;
16506;SDS011;8366;51.020;7.642;2022-09-09T07:03:05;4.22;;;1.40;;
16506;SDS011;8366;51.020;7.642;2022-09-09T07:05:31;7.10;;;1.70;;
16506;SDS011;8366;51.020;7.642;2022-09-09T07:07:58;4.70;;;1.73;;
16506;SDS011;8366;51.020;7.642;2022-09-09T07:10:24;5.60;;;1.67;;
16506;SDS011;8366;51.020;7.642;2022-09-09T07:12:51;3.92;;;2.15;;
16506;SDS011;8366;51.020;7.642;2022-09-09T07:15:18;5.13;;;1.83;;
16506;SDS011;8366;51.020;7.642;2022-09-09T07:17:44;4.72;;;1.92;;
16506;SDS011;8366;51.020;7.642;2022-09-09T07:20:12;3.40;;;1.80;;
16506;SDS011;8366;51.020;7.642;2022-09-09T07:22:39;3.97;;;1.48;;
16506;SDS011;8366;51.020;7.642;2022-09-09T07:25:06;5.72;;;1.83;;
16506;SDS011;8366;51.020;7.642;2022-09-09T07:27:33;4.45;;;1.50;;
16506;SDS011;8366;51.020;7.642;2022-09-09T07:30:00;2.75;;;1.60;;
16506;SDS011;8366;51.020;7.642;2022-09-09T07:32:27;4.30;;;1.58;;
16506;SDS011;8366;51.020;7.642;2022-09-09T07:34:55;6.45;;;1.75;;
16506;SDS011;8366;51.020;7.642;2022-09-09T07:37:24;5.10;;;1.60;;
16506;SDS011;8366;51.020;7.642;2022-09-09T07:39:50;4.75;;;1.50;;
16506;SDS011;8366;51.020;7.642;2022-09-09T07:42:17;6.28;;;1.60;;
16506;SDS011;8366;51.020;7.642;2022-09-09T07:44:44;3.95;;;1.55;;
16506;SDS011;8366;51.020;7.642;2022-09-09T07:47:10;4.68;;;1.63;;
16506;SDS011;8366;51.020;7.642;2022-09-09T07:49:37;6.22;;;1.48;;
16506;SDS011;8366;51.020;7.642;2022-09-09T07:52:04;6.57;;;1.40;;
16506;SDS011;8366;51.020;7.642;2022-09-09T07:54:31;5.78;;;1.58;;
16506;SDS011;8366;51.020;7.642;2022-09-09T07:56:58;3.60;;;1.50;;
16506;SDS011;8366;51.020;7.642;2022-09-09T07:59:24;4.38;;;1.65;;
16506;SDS011;8366;51.020;7.642;2022-09-09T08:01:51;5.22;;;1.58;;
16506;SDS011;8366;51.020;7.642;2022-09-09T08:04:19;4.88;;;1.50;;
16506;SDS011;8366;51.020;7.642;2022-09-09T08:06:47;5.35;;;1.70;;
16506;SDS011;8366;51.020;7.642;2022-09-09T08:09:15;5.00;;;1.42;;
16506;SDS011;8366;51.020;7.642;2022-09-09T08:11:43;4.28;;;1.40;;
16506;SDS011;8366;51.020;7.642;2022-09-09T08:14:10;4.57;;;1.52;;
16506;SDS011;8366;51.020;7.642;2022-09-09T08:16:38;4.38;;;1.55;;
16506;SDS011;8366;51.020;7.642;2022-09-09T08:19:05;7.20;;;1.50;;
16506;SDS011;8366;51.020;7.642;2022-09-09T08:21:33;3.83;;;1.33;;
16506;SDS011;8366;51.020;7.642;2022-09-09T08:24:01;3.95;;;1.30;;
16506;SDS011;8366;51.020;7.642;2022-09-09T08:26:29;5.32;;;1.30;;
16506;SDS011;8366;51.020;7.642;2022-09-09T08:28:58;2.95;;;1.40;;
16506;SDS011;8366;51.020;7.642;2022-09-09T08:31:27;6.05;;;1.67;;
16506;SDS011;8366;51.020;7.642;2022-09-09T08:33:55;4.45;;;1.25;;
16506;SDS011;8366;51.020;7.642;2022-09-09T08:36:23;6.45;;;1.60;;
16506;SDS011;8366;51.020;7.642;2022-09-09T08:38:51;5.25;;;1.88;;
16506;SDS011;8366;51.020;7.642;2022-09-09T08:44:17;4.00;;;1.33;;
16506;SDS011;8366;51.020;7.642;2022-09-09T08:46:49;4.80;;;1.60;;
16506;SDS011;8366;51.020;7.642;2022-09-09T08:49:38;3.75;;;1.27;;
16506;SDS011;8366;51.020;7.642;2022-09-09T08:52:15;5.65;;;1.60;;
16506;SDS011;8366;51.020;7.642;2022-09-09T08:54:44;4.10;;;1.30;;
16506;SDS011;8366;51.020;7.642;2022-09-09T08:57:11;5.13;;;1.50;;
16506;SDS011;8366;51.020;7.642;2022-09-09T08:59:42;4.35;;;1.30;;
16506;SDS011;8366;51.020;7.642;2022-09-09T09:02:11;4.85;;;1.35;;
16506;SDS011;8366;51.020;7.642;2022-09-09T09:04:47;3.53;;;1.38;;
16506;SDS011;8366;51.020;7.642;2022-09-09T09:07:24;4.72;;;1.33;;
16506;SDS011;8366;51.020;7.642;2022-09-09T09:09:59;3.60;;;1.17;;
16506;SDS011;8366;51.020;7.642;2022-09-09T09:12:29;2.83;;;0.93;;
16506;SDS011;8366;51.020;7.642;2022-09-09T09:15:01;5.10;;;1.30;;
16506;SDS011;8366;51.020;7.642;2022-09-09T09:17:27;4.93;;;1.20;;
16506;SDS011;8366;51.020;7.642;2022-09-09T09:19:56;3.85;;;1.13;;
16506;SDS011;8366;51.020;7.642;2022-09-09T09:22:25;7.30;;;1.20;;
16506;SDS011;8366;51.020;7.642;2022-09-09T09:24:58;4.50;;;1.23;;
16506;SDS011;8366;51.020;7.642;2022-09-09T09:27:30;5.50;;;1.27;;
16506;SDS011;8366;51.020;7.642;2022-09-09T09:29:58;7.03;;;1.10;;
16506;SDS011;8366;51.020;7.642;2022-09-09T09:32:28;4.05;;;1.30;;
16506;SDS011;8366;51.020;7.642;2022-09-09T09:34:57;3.90;;;1.33;;
16506;SDS011;8366;51.020;7.642;2022-09-09T09:37:30;8.48;;;1.42;;
16506;SDS011;8366;51.020;7.642;2022-09-09T09:40:07;5.15;;;1.40;;
16506;SDS011;8366;51.020;7.642;2022-09-09T09:42:35;5.55;;;1.30;;
16506;SDS011;8366;51.020;7.642;2022-09-09T09:45:12;6.80;;;1.20;;
16506;SDS011;8366;51.020;7.642;2022-09-09T09:47:43;4.97;;;1.13;;
16506;SDS011;8366;51.020;7.642;2022-09-09T09:50:16;10.60;;;1.73;;
16506;SDS011;8366;51.020;7.642;2022-09-09T09:52:51;5.72;;;1.40;;
16506;SDS011;8366;51.020;7.642;2022-09-09T09:55:21;5.05;;;1.30;;
16506;SDS011;8366;51.020;7.642;2022-09-09T09:57:49;4.90;;;1.27;;
16506;SDS011;8366;51.020;7.642;2022-09-09T10:00:19;3.85;;;1.25;;
16506;SDS011;8366;51.020;7.642;2022-09-09T10:02:47;3.33;;;1.40;;
16506;SDS011;8366;51.020;7.642;2022-09-09T10:05:14;3.33;;;0.90;;
16506;SDS011;8366;51.020;7.642;2022-09-09T10:07:42;3.80;;;1.10;;
16506;SDS011;8366;51.020;7.642;2022-09-09T10:10:12;4.53;;;1.20;;
16506;SDS011;8366;51.020;7.642;2022-09-09T10:12:43;4.65;;;1.15;;
16506;SDS011;8366;51.020;7.642;2022-09-09T10:15:21;4.03;;;1.00;;
16506;SDS011;8366;51.020;7.642;2022-09-09T10:17:54;5.65;;;1.10;;
16506;SDS011;8366;51.020;7.642;2022-09-09T10:20:30;2.67;;;1.13;;
16506;SDS011;8366;51.020;7.642;2022-09-09T10:23:02;3.33;;;1.00;;
16506;SDS011;8366;51.020;7.642;2022-09-09T10:25:38;5.13;;;1.30;;
16506;SDS011;8366;51.020;7.642;2022-09-09T10:28:21;3.17;;;1.00;;
16506;SDS011;8366;51.020;7.642;2022-09-09T10:30:56;1.25;;;0.75;;
16506;SDS011;8366;51.020;7.642;2022-09-09T10:33:31;3.35;;;0.90;;
16506;SDS011;8366;51.020;7.642;2022-09-09T10:36:01;3.15;;;1.20;;
16506;SDS011;8366;51.020;7.642;2022-09-09T10:38:33;3.92;;;1.00;;
16506;SDS011;8366;51.020;7.642;2022-09-09T10:41:15;2.72;;;0.85;;
16506;SDS011;8366;51.020;7.642;2022-09-09T10:43:58;3.95;;;0.90;;
16506;SDS011;8366;51.020;7.642;2022-09-09T10:46:34;2.92;;;0.80;;
16506;SDS011;8366;51.020;7.642;2022-09-09T10:49:11;3.55;;;0.98;;
16506;SDS011;8366;51.020;7.642;2022-09-09T10:51:46;1.77;;;0.90;;
16506;SDS011;8366;51.020;7.642;2022-09-09T10:54:23;2.95;;;0.90;;
16506;SDS011;8366;51.020;7.642;2022-09-09T10:56:55;2.10;;;0.90;;
16506;SDS011;8366;51.020;7.642;2022-09-09T10:59:24;2.22;;;0.80;;
16506;SDS011;8366;51.020;7.642;2022-09-09T11:01:55;4.50;;;0.75;;
16506;SDS011;8366;51.020;7.642;2022-09-09T11:04:25;4.47;;;0.85;;
16506;SDS011;8366;51.020;7.642;2022-09-09T11:06:54;5.38;;;0.90;;
16506;SDS011;8366;51.020;7.642;2022-09-09T11:09:23;3.35;;;1.00;;
16506;SDS011;8366;51.020;7.642;2022-09-09T11:11:53;5.75;;;1.10;;
16506;SDS011;8366;51.020;7.642;2022-09-09T11:14:22;1.98;;;0.77;;
16506;SDS011;8366;51.020;7.642;2022-09-09T11:16:56;3.20;;;0.90;;
16506;SDS011;8366;51.020;7.642;2022-09-09T11:19:26;2.88;;;0.93;;
16506;SDS011;8366;51.020;7.642;2022-09-09T11:21:53;3.65;;;1.20;;
16506;SDS011;8366;51.020;7.642;2022-09-09T11:24:23;3.90;;;0.90;;
16506;SDS011;8366;51.020;7.642;2022-09-09T11:26:53;4.90;;;1.05;;
16506;SDS011;8366;51.020;7.642;2022-09-09T11:32:23;4.20;;;0.73;;
16506;SDS011;8366;51.020;7.642;2022-09-09T11:34:56;3.15;;;1.02;;
16506;SDS011;8366;51.020;7.642;2022-09-09T11:40:20;5.53;;;1.05;;
16506;SDS011;8366;51.020;7.642;2022-09-09T11:42:48;5.07;;;1.00;;
16506;SDS011;8366;51.020;7.642;2022-09-09T11:45:23;2.85;;;0.90;;
16506;SDS011;8366;51.020;7.642;2022-09-09T11:47:54;5.05;;;1.13;;
16506;SDS011;8366;51.020;7.642;2022-09-09T11:50:32;5.07;;;1.02;;
16506;SDS011;8366;51.020;7.642;2022-09-09T11:53:17;3.88;;;0.90;;
16506;SDS011;8366;51.020;7.642;2022-09-09T11:55:47;3.28;;;0.90;;
16506;SDS011;8366;51.020;7.642;2022-09-09T11:58:15;3.70;;;1.10;;
16506;SDS011;8366;51.020;7.642;2022-09-09T12:00:44;3.65;;;1.13;;
16506;SDS011;8366;51.020;7.642;2022-09-09T12:06:08;4.10;;;0.82;;
16506;SDS011;8366;51.020;7.642;2022-09-09T12:08:36;4.35;;;0.80;;
16506;SDS011;8366;51.020;7.642;2022-09-09T12:11:03;4.18;;;1.00;;
16506;SDS011;8366;51.020;7.642;2022-09-09T12:13:30;3.58;;;0.80;;
16506;SDS011;8366;51.020;7.642;2022-09-09T12:15:57;3.47;;;0.63;;
16506;SDS011;8366;51.020;7.642;2022-09-09T12:18:31;3.33;;;1.00;;
16506;SDS011;8366;51.020;7.642;2022-09-09T12:21:02;3.08;;;0.82;;
16506;SDS011;8366;51.020;7.642;2022-09-09T12:23:35;1.67;;;0.70;;
16506;SDS011;8366;51.020;7.642;2022-09-09T12:26:12;4.45;;;0.90;;
16506;SDS011;8366;51.020;7.642;2022-09-09T12:28:51;2.72;;;0.80;;
16506;SDS011;8366;51.020;7.642;2022-09-09T12:31:22;2.63;;;0.90;;
16506;SDS011;8366;51.020;7.642;2022-09-09T12:33:51;3.38;;;0.90;;
16506;SDS011;8366;51.020;7.642;2022-09-09T12:36:19;3.95;;;0.90;;
16506;SDS011;8366;51.020;7.642;2022-09-09T12:38:48;1.98;;;0.70;;
16506;SDS011;8366;51.020;7.642;2022-09-09T12:41:19;2.38;;;0.90;;
16506;SDS011;8366;51.020;7.642;2022-09-09T12:43:46;2.60;;;0.90;;
16506;SDS011;8366;51.020;7.642;2022-09-09T12:46:14;1.15;;;0.70;;
16506;SDS011;8366;51.020;7.642;2022-09-09T12:48:47;2.63;;;1.10;;
16506;SDS011;8366;51.020;7.642;2022-09-09T12:51:16;2.15;;;0.85;;
16506;SDS011;8366;51.020;7.642;2022-09-09T12:53:47;2.53;;;0.80;;
16506;SDS011;8366;51.020;7.642;2022-09-09T12:56:18;1.73;;;0.82;;
16506;SDS011;8366;51.020;7.642;2022-09-09T12:58:46;2.75;;;0.70;;
16506;SDS011;8366;51.020;7.642;2022-09-09T13:01:18;2.65;;;0.90;;
16506;SDS011;8366;51.020;7.642;2022-09-09T13:03:47;2.15;;;0.88;;
16506;SDS011;8366;51.020;7.642;2022-09-09T13:06:18;1.50;;;0.90;;
16506;SDS011;8366;51.020;7.642;2022-09-09T13:08:48;3.28;;;0.90;;
16506;SDS011;8366;51.020;7.642;2022-09-09T13:11:16;1.65;;;0.70;;
16506;SDS011;8366;51.020;7.642;2022-09-09T13:13:50;2.70;;;0.63;;
16506;SDS011;8366;51.020;7.642;2022-09-09T13:16:18;1.67;;;0.77;;
16506;SDS011;8366;51.020;7.642;2022-09-09T13:18:46;1.88;;;0.80;;
16506;SDS011;8366;51.020;7.642;2022-09-09T13:21:13;1.88;;;0.75;;
16506;SDS011;8366;51.020;7.642;2022-09-09T13:23:41;2.05;;;0.63;;
16506;SDS011;8366;51.020;7.642;2022-09-09T13:26:20;2.67;;;0.90;;
16506;SDS011;8366;51.020;7.642;2022-09-09T13:28:47;5.28;;;1.20;;
16506;SDS011;8366;51.020;7.642;2022-09-09T13:31:19;1.50;;;0.70;;
16506;SDS011;8366;51.020;7.642;2022-09-09T13:33:47;2.88;;;1.10;;
16506;SDS011;8366;51.020;7.642;2022-09-09T13:36:13;3.60;;;0.90;;
16506;SDS011;8366;51.020;7.642;2022-09-09T13:38:53;1.42;;;1.00;;
16506;SDS011;8366;51.020;7.642;2022-09-09T13:41:20;4.32;;;1.00;;
16506;SDS011;8366;51.020;7.642;2022-09-09T13:43:48;2.88;;;0.88;;
16506;SDS011;8366;51.020;7.642;2022-09-09T13:46:32;2.45;;;0.77;;
16506;SDS011;8366;51.020;7.642;2022-09-09T13:49:00;6.93;;;0.80;;
16506;SDS011;8366;51.020;7.642;2022-09-09T13:51:34;5.03;;;0.90;;
16506;SDS011;8366;51.020;7.642;2022-09-09T13:54:04;3.17;;;0.73;;
16506;SDS011;8366;51.020;7.642;2022-09-09T13:56:31;3.75;;;1.08;;
16506;SDS011;8366;51.020;7.642;2022-09-09T13:58:57;4.80;;;0.75;;
16506;SDS011;8366;51.020;7.642;2022-09-09T14:01:24;3.58;;;0.80;;
16506;SDS011;8366;51.020;7.642;2022-09-09T14:03:50;1.90;;;0.80;;
16506;SDS011;8366;51.020;7.642;2022-09-09T14:06:17;4.55;;;0.88;;
16506;SDS011;8366;51.020;7.642;2022-09-09T14:08:44;1.73;;;1.08;;
16506;SDS011;8366;51.020;7.642;2022-09-09T14:11:12;2.83;;;0.90;;
16506;SDS011;8366;51.020;7.642;2022-09-09T14:13:39;2.80;;;0.77;;
16506;SDS011;8366;51.020;7.642;2022-09-09T14:16:06;3.20;;;0.75;;
16506;SDS011;8366;51.020;7.642;2022-09-09T14:18:32;3.22;;;0.93;;
16506;SDS011;8366;51.020;7.642;2022-09-09T14:20:58;2.88;;;0.70;;
16506;SDS011;8366;51.020;7.642;2022-09-09T14:23:27;1.85;;;0.68;;
16506;SDS011;8366;51.020;7.642;2022-09-09T14:25:54;3.10;;;0.70;;
16506;SDS011;8366;51.020;7.642;2022-09-09T14:28:22;2.88;;;0.73;;
16506;SDS011;8366;51.020;7.642;2022-09-09T14:30:49;3.60;;;0.90;;
16506;SDS011;8366;51.020;7.642;2022-09-09T14:33:15;1.63;;;0.70;;
16506;SDS011;8366;51.020;7.642;2022-09-09T14:35:42;2.38;;;0.65;;
16506;SDS011;8366;51.020;7.642;2022-09-09T14:38:09;1.80;;;0.90;;
16506;SDS011;8366;51.020;7.642;2022-09-09T14:40:35;2.22;;;0.85;;
16506;SDS011;8366;51.020;7.642;2022-09-09T14:43:03;1.92;;;0.80;;
16506;SDS011;8366;51.020;7.642;2022-09-09T14:45:32;5.40;;;1.10;;
16506;SDS011;8366;51.020;7.642;2022-09-09T14:47:58;3.45;;;0.90;;
16506;SDS011;8366;51.020;7.642;2022-09-09T14:50:25;2.90;;;0.93;;
16506;SDS011;8366;51.020;7.642;2022-09-09T14:52:52;2.72;;;0.90;;
16506;SDS011;8366;51.020;7.642;2022-09-09T14:55:18;2.53;;;0.95;;
16506;SDS011;8366;51.020;7.642;2022-09-09T14:57:46;2.85;;;0.80;;
16506;SDS011;8366;51.020;7.642;2022-09-09T15:00:12;1.70;;;0.80;;
16506;SDS011;8366;51.020;7.642;2022-09-09T15:02:41;1.95;;;0.95;;
16506;SDS011;8366;51.020;7.642;2022-09-09T15:05:08;2.50;;;0.90;;
16506;SDS011;8366;51.020;7.642;2022-09-09T15:07:35;2.85;;;0.70;;
16506;SDS011;8366;51.020;7.642;2022-09-09T15:10:03;3.08;;;0.80;;
16506;SDS011;8366;51.020;7.642;2022-09-09T15:12:30;2.25;;;0.82;;
16506;SDS011;8366;51.020;7.642;2022-09-09T15:14:56;2.17;;;0.82;;
16506;SDS011;8366;51.020;7.642;2022-09-09T15:17:23;3.00;;;0.80;;
16506;SDS011;8366;51.020;7.642;2022-09-09T15:19:53;1.73;;;0.60;;
16506;SDS011;8366;51.020;7.642;2022-09-09T15:22:20;1.92;;;0.70;;
16506;SDS011;8366;51.020;7.642;2022-09-09T15:24:47;2.28;;;0.70;;
16506;SDS011;8366;51.020;7.642;2022-09-09T15:27:13;1.70;;;0.60;;